createdAt,value
2022-11-16T00:02:14.697Z,5.65
2022-11-16T00:04:41.652Z,4.90
2022-11-16T00:07:08.939Z,6.30
2022-11-16T00:09:35.746Z,5.93
2022-11-16T00:12:06.406Z,5.65
2022-11-16T00:14:35.192Z,6.63
2022-11-16T00:17:02.371Z,7.07
2022-11-16T00:19:29.367Z,6.55
2022-11-16T00:21:56.028Z,6.80
2022-11-16T00:24:23.478Z,6.10
2022-11-16T00:26:51.064Z,6.60
2022-11-16T00:29:20.868Z,5.45
2022-11-16T00:31:48.864Z,5.80
2022-11-16T00:34:16.342Z,5.93
2022-11-16T00:36:43.245Z,4.82
2022-11-16T00:39:14.941Z,4.80
2022-11-16T00:41:42.080Z,4.72
2022-11-16T00:44:09.204Z,5.18
2022-11-16T00:46:35.815Z,5.15
2022-11-16T00:49:03.119Z,5.78
2022-11-16T00:51:29.754Z,4.47
2022-11-16T00:53:56.993Z,4.47
2022-11-16T00:56:24.010Z,5.60
2022-11-16T00:58:51.114Z,3.97
2022-11-16T01:01:18.258Z,5.45
2022-11-16T01:03:45.932Z,4.45
2022-11-16T01:06:14.314Z,3.90
2022-11-16T01:08:42.340Z,4.18
2022-11-16T01:11:28.792Z,5.28
2022-11-16T01:13:58.592Z,3.70
2022-11-16T01:16:25.360Z,4.32
2022-11-16T01:18:54.564Z,3.78
2022-11-16T01:21:22.291Z,3.63
2022-11-16T01:23:49.259Z,4.47
2022-11-16T01:26:15.953Z,4.05
2022-11-16T01:28:43.014Z,3.90
2022-11-16T01:31:11.109Z,3.40
2022-11-16T01:33:39.268Z,3.60
2022-11-16T01:36:14.438Z,3.30
2022-11-16T01:38:46.120Z,3.55
2022-11-16T01:41:20.151Z,4.00
2022-11-16T01:43:53.964Z,4.20
2022-11-16T01:46:23.813Z,4.50
2022-11-16T01:49:00.752Z,4.43
2022-11-16T01:51:28.249Z,3.83
2022-11-16T01:53:56.261Z,5.30
2022-11-16T01:56:24.782Z,5.63
2022-11-16T01:59:05.665Z,5.05
2022-11-16T02:01:32.414Z,4.13
2022-11-16T02:04:01.480Z,4.50
2022-11-16T02:06:40.630Z,4.43
2022-11-16T02:09:58.788Z,5.07
2022-11-16T02:12:52.626Z,5.43
2022-11-16T02:15:41.902Z,3.97
2022-11-16T02:18:20.855Z,3.55
2022-11-16T02:21:27.273Z,5.72
2022-11-16T02:24:22.993Z,4.03
2022-11-16T02:27:11.559Z,3.35
2022-11-16T02:29:42.655Z,3.55
2022-11-16T02:32:30.080Z,3.95
2022-11-16T02:35:00.146Z,3.75
2022-11-16T02:37:31.493Z,4.53
2022-11-16T02:40:01.988Z,4.22
2022-11-16T02:42:41.471Z,3.70
2022-11-16T02:45:12.544Z,3.53
2022-11-16T02:47:42.526Z,3.20
2022-11-16T02:50:14.079Z,3.83
2022-11-16T02:52:40.757Z,3.20
2022-11-16T02:55:09.948Z,2.70
2022-11-16T02:57:49.296Z,3.00
2022-11-16T03:00:20.337Z,3.08
2022-11-16T03:02:53.486Z,3.08
2022-11-16T03:05:41.083Z,3.22
2022-11-16T03:08:20.525Z,2.83
2022-11-16T03:11:14.048Z,3.55
2022-11-16T03:13:41.960Z,3.30
2022-11-16T03:16:18.371Z,3.53
2022-11-16T03:18:47.615Z,3.90
2022-11-16T03:21:36.831Z,3.65
2022-11-16T03:24:04.768Z,3.75
2022-11-16T03:26:41.650Z,4.03
2022-11-16T03:29:15.073Z,2.90
2022-11-16T03:31:48.102Z,4.60
2022-11-16T03:34:23.413Z,3.80
2022-11-16T03:36:54.943Z,3.75
2022-11-16T03:39:29.074Z,5.30
2022-11-16T03:41:58.869Z,4.40
2022-11-16T03:44:27.394Z,5.10
2022-11-16T03:46:54.107Z,5.28
2022-11-16T03:49:23.254Z,4.03
2022-11-16T03:51:52.391Z,4.60
2022-11-16T03:54:19.340Z,4.22
2022-11-16T03:56:45.914Z,4.65
2022-11-16T03:59:12.643Z,4.03
2022-11-16T04:01:44.484Z,4.63
2022-11-16T04:04:33.012Z,5.05
2022-11-16T04:07:18.745Z,3.75
2022-11-16T04:10:04.294Z,3.50
2022-11-16T04:12:50.267Z,3.30
2022-11-16T04:15:35.663Z,2.90
2022-11-16T04:18:20.702Z,2.78
2022-11-16T04:21:05.943Z,3.08
2022-11-16T04:23:51.118Z,2.80
2022-11-16T04:26:18.078Z,4.43
2022-11-16T04:28:44.904Z,3.08
2022-11-16T04:31:29.854Z,3.70
2022-11-16T04:34:25.204Z,4.18
2022-11-16T04:37:13.448Z,3.95
2022-11-16T04:39:40.668Z,3.40
2022-11-16T04:42:15.543Z,3.78
2022-11-16T04:45:03.246Z,4.25
2022-11-16T04:47:39.596Z,4.35
2022-11-16T04:50:06.760Z,3.67
2022-11-16T04:52:33.542Z,4.95
2022-11-16T04:55:00.372Z,4.28
2022-11-16T04:57:28.383Z,3.78
2022-11-16T04:59:55.743Z,4.18
2022-11-16T05:02:22.566Z,4.03
2022-11-16T05:04:53.929Z,4.28
2022-11-16T05:07:22.389Z,4.90
2022-11-16T05:09:50.624Z,5.65
2022-11-16T05:12:22.973Z,7.65
2022-11-16T05:14:55.302Z,5.20
2022-11-16T05:17:25.226Z,5.55
2022-11-16T05:20:11.142Z,7.35
2022-11-16T05:22:51.766Z,4.45
2022-11-16T05:25:18.603Z,3.90
2022-11-16T05:27:45.726Z,5.95
2022-11-16T05:30:12.812Z,5.03
2022-11-16T05:32:39.471Z,5.03
2022-11-16T05:35:08.130Z,5.20
2022-11-16T05:37:35.955Z,5.32
2022-11-16T05:40:02.617Z,4.38
2022-11-16T05:42:38.808Z,4.85
2022-11-16T05:45:05.965Z,4.43
2022-11-16T05:47:33.348Z,4.60
2022-11-16T05:50:00.834Z,5.05
2022-11-16T05:52:32.315Z,5.28
2022-11-16T05:55:04.331Z,5.00
2022-11-16T05:57:34.912Z,6.65
2022-11-16T06:00:01.688Z,5.72
2022-11-16T06:02:29.124Z,6.47
2022-11-16T06:04:55.829Z,6.30
2022-11-16T06:07:22.753Z,5.82
2022-11-16T06:09:49.863Z,5.95
2022-11-16T06:12:20.338Z,4.97
2022-11-16T06:14:48.166Z,4.97
2022-11-16T06:17:15.031Z,5.38
2022-11-16T06:19:42.772Z,5.60
2022-11-16T06:22:09.514Z,8.77
2022-11-16T06:24:36.192Z,10.32
2022-11-16T06:27:03.263Z,8.00
2022-11-16T06:29:29.902Z,6.25
2022-11-16T06:31:57.395Z,6.15
2022-11-16T06:34:24.663Z,5.68
2022-11-16T06:36:51.406Z,5.85
2022-11-16T06:39:18.150Z,4.78
2022-11-16T06:41:45.732Z,4.57
2022-11-16T06:44:13.584Z,4.47
2022-11-16T06:46:50.672Z,4.68
2022-11-16T06:49:17.960Z,4.38
2022-11-16T06:51:45.850Z,4.60
2022-11-16T06:54:12.623Z,4.28
2022-11-16T06:56:39.210Z,4.40
2022-11-16T06:59:07.159Z,4.65
2022-11-16T07:01:34.632Z,6.43
2022-11-16T07:04:06.365Z,4.68
2022-11-16T07:06:33.066Z,4.53
2022-11-16T07:09:00.052Z,4.22
2022-11-16T07:11:30.388Z,4.22
2022-11-16T07:13:58.294Z,4.30
2022-11-16T07:16:25.318Z,3.60
2022-11-16T07:18:59.063Z,4.60
2022-11-16T07:21:28.255Z,3.83
2022-11-16T07:23:55.944Z,4.35
2022-11-16T07:26:23.152Z,3.85
2022-11-16T07:29:01.675Z,4.55
2022-11-16T07:31:29.522Z,4.57
2022-11-16T07:34:14.712Z,4.00
2022-11-16T07:36:47.387Z,4.18
2022-11-16T07:39:14.048Z,3.95
2022-11-16T07:41:44.944Z,4.50
2022-11-16T07:44:23.077Z,4.60
2022-11-16T07:47:01.818Z,6.35
2022-11-16T07:49:30.354Z,4.22
2022-11-16T07:52:03.186Z,3.97
2022-11-16T07:54:49.581Z,5.53
2022-11-16T07:57:19.065Z,4.63
2022-11-16T07:59:46.473Z,5.18
2022-11-16T08:02:13.259Z,3.25
2022-11-16T08:04:41.435Z,3.50
2022-11-16T08:07:09.072Z,3.85
2022-11-16T08:09:43.123Z,3.75
2022-11-16T08:12:13.335Z,3.28
2022-11-16T08:14:40.166Z,3.50
2022-11-16T08:17:08.295Z,4.68
2022-11-16T08:19:36.590Z,5.18
2022-11-16T08:22:03.791Z,3.53
2022-11-16T08:24:32.657Z,5.03
2022-11-16T08:26:59.403Z,3.90
2022-11-16T08:29:26.850Z,3.42
2022-11-16T08:31:54.347Z,4.55
2022-11-16T08:34:22.331Z,2.63
2022-11-16T08:36:52.511Z,3.15
2022-11-16T08:39:24.886Z,3.50
2022-11-16T08:41:51.743Z,4.20
2022-11-16T08:44:18.491Z,3.90
2022-11-16T08:46:49.608Z,2.13
2022-11-16T08:49:31.677Z,2.50
2022-11-16T08:51:58.492Z,4.38
2022-11-16T08:54:25.245Z,3.03
2022-11-16T08:56:53.475Z,2.13
2022-11-16T08:59:20.328Z,2.75
2022-11-16T09:01:50.814Z,3.10
2022-11-16T09:04:18.677Z,3.33
2022-11-16T09:06:45.940Z,3.78
2022-11-16T09:09:12.629Z,3.58
2022-11-16T09:11:39.392Z,5.25
2022-11-16T09:14:06.072Z,3.17
2022-11-16T09:16:32.726Z,3.33
2022-11-16T09:18:59.459Z,3.28
2022-11-16T09:21:28.620Z,3.90
2022-11-16T09:23:57.105Z,2.45
2022-11-16T09:26:24.532Z,5.72
2022-11-16T09:28:57.934Z,3.88
2022-11-16T09:31:27.342Z,3.92
2022-11-16T09:33:58.214Z,3.17
2022-11-16T09:36:27.785Z,3.58
2022-11-16T09:39:25.880Z,2.95
2022-11-16T09:42:19.401Z,4.63
2022-11-16T09:45:05.639Z,3.13
2022-11-16T09:47:54.292Z,3.85
2022-11-16T09:50:41.352Z,4.05
2022-11-16T09:53:25.525Z,5.78
2022-11-16T09:55:55.201Z,3.78
2022-11-16T09:58:34.646Z,3.75
2022-11-16T10:01:21.224Z,3.33
2022-11-16T10:03:53.890Z,3.22
2022-11-16T10:06:35.583Z,3.00
2022-11-16T10:09:02.237Z,3.50
2022-11-16T10:11:54.795Z,3.42
2022-11-16T10:14:24.175Z,2.60
2022-11-16T10:17:06.631Z,5.10
2022-11-16T10:20:04.988Z,3.42
2022-11-16T10:22:45.714Z,3.10
2022-11-16T10:25:35.036Z,4.32
2022-11-16T10:28:40.037Z,2.13
2022-11-16T10:31:24.718Z,2.42
2022-11-16T10:33:57.021Z,2.50
2022-11-16T10:36:27.449Z,3.10
2022-11-16T10:38:56.973Z,3.72
2022-11-16T10:41:35.581Z,2.83
2022-11-16T10:44:02.793Z,3.17
2022-11-16T10:46:46.743Z,2.47
2022-11-16T10:49:23.882Z,2.30
2022-11-16T10:51:50.519Z,4.25
2022-11-16T10:54:18.387Z,1.85
2022-11-16T10:56:51.896Z,2.97
2022-11-16T10:59:19.590Z,4.28
2022-11-16T11:01:53.096Z,2.15
2022-11-16T11:04:19.658Z,1.27
2022-11-16T11:06:52.023Z,3.85
2022-11-16T11:09:27.835Z,3.22
2022-11-16T11:12:34.839Z,2.53
2022-11-16T11:15:25.978Z,4.68
2022-11-16T11:18:24.609Z,3.20
2022-11-16T11:21:05.935Z,2.28
2022-11-16T11:23:42.563Z,3.40
2022-11-16T11:26:33.151Z,3.03
2022-11-16T11:29:16.813Z,2.13
2022-11-16T11:31:46.785Z,3.75
2022-11-16T11:34:23.404Z,2.85
2022-11-16T11:36:54.773Z,4.45
2022-11-16T11:39:21.396Z,2.60
2022-11-16T11:42:06.470Z,2.50
2022-11-16T11:44:35.848Z,3.28
2022-11-16T11:50:24.889Z,2.70
2022-11-16T11:53:10.355Z,2.97
2022-11-16T11:55:37.685Z,3.30
2022-11-16T11:58:07.014Z,3.88
2022-11-16T12:00:47.832Z,2.55
2022-11-16T12:03:43.918Z,0.60
2022-11-16T12:06:30.766Z,2.05
2022-11-16T12:09:15.135Z,3.38
2022-11-16T12:12:00.311Z,6.20
2022-11-16T12:15:30.984Z,1.80
2022-11-16T12:18:06.851Z,2.55
2022-11-16T12:20:51.408Z,2.72
2022-11-16T12:23:35.168Z,2.58
2022-11-16T12:26:20.265Z,2.40
2022-11-16T12:29:06.502Z,1.70
2022-11-16T12:32:12.098Z,2.95
2022-11-16T12:35:16.786Z,3.55
2022-11-16T12:37:49.754Z,2.83
2022-11-16T12:40:37.543Z,4.15
2022-11-16T12:43:18.836Z,2.92
2022-11-16T12:45:57.904Z,2.53
2022-11-16T12:48:57.368Z,3.40
2022-11-16T12:51:45.433Z,3.28
2022-11-16T12:54:48.057Z,2.28
2022-11-16T12:57:36.883Z,2.40
2022-11-16T13:00:11.171Z,2.60
2022-11-16T13:02:55.123Z,2.05
2022-11-16T13:05:32.168Z,2.20
2022-11-16T13:08:43.682Z,1.02
2022-11-16T13:11:22.772Z,3.03
2022-11-16T13:13:55.381Z,2.30
2022-11-16T13:16:24.096Z,2.88
2022-11-16T13:18:52.217Z,1.13
2022-11-16T13:21:29.784Z,2.50
2022-11-16T13:24:27.345Z,0.98
2022-11-16T13:26:53.960Z,1.90
2022-11-16T13:29:42.956Z,1.65
2022-11-16T13:32:30.777Z,2.90
2022-11-16T13:34:59.582Z,3.40
2022-11-16T13:37:38.589Z,2.58
2022-11-16T13:40:05.481Z,1.85
2022-11-16T13:42:42.088Z,2.03
2022-11-16T13:45:22.674Z,1.23
2022-11-16T13:47:51.119Z,2.88
2022-11-16T13:50:20.963Z,1.35
2022-11-16T13:55:44.069Z,0.88
2022-11-16T13:58:19.953Z,4.57
2022-11-16T14:00:55.340Z,1.88
2022-11-16T14:03:22.030Z,0.98
2022-11-16T14:05:52.705Z,2.45
2022-11-16T14:08:19.353Z,2.33
2022-11-16T14:10:50.033Z,4.10
2022-11-16T14:13:42.139Z,1.27
2022-11-16T14:16:14.997Z,1.38
2022-11-16T14:18:42.383Z,4.05
2022-11-16T14:21:16.223Z,2.75
2022-11-16T14:24:20.563Z,3.15
2022-11-16T14:27:16.933Z,1.65
2022-11-16T14:29:49.517Z,3.00
2022-11-16T14:32:19.447Z,0.95
2022-11-16T14:34:49.187Z,2.20
2022-11-16T14:37:22.115Z,5.07
2022-11-16T14:39:58.791Z,1.77
2022-11-16T14:42:38.172Z,3.70
2022-11-16T14:45:17.053Z,3.53
2022-11-16T14:47:47.848Z,2.50
2022-11-16T14:50:21.007Z,4.30
2022-11-16T14:52:51.192Z,7.72
2022-11-16T14:55:24.536Z,3.95
2022-11-16T14:58:17.811Z,3.60
2022-11-16T15:01:03.500Z,3.85
2022-11-16T15:03:53.853Z,23.70
2022-11-16T15:06:21.235Z,6.57
2022-11-16T15:09:00.617Z,4.22
2022-11-16T15:11:51.544Z,2.85
2022-11-16T15:14:21.192Z,1.58
2022-11-16T15:16:56.428Z,3.03
2022-11-16T15:19:24.049Z,3.78
2022-11-16T15:21:58.768Z,4.38
2022-11-16T15:24:31.438Z,3.60
2022-11-16T15:27:32.197Z,3.47
2022-11-16T15:30:01.844Z,2.60
2022-11-16T15:32:29.130Z,4.47
2022-11-16T15:34:55.751Z,3.13
2022-11-16T15:37:29.934Z,4.68
2022-11-16T15:40:02.392Z,4.97
2022-11-16T15:42:29.622Z,4.30
2022-11-16T15:44:59.024Z,2.85
2022-11-16T15:47:26.094Z,3.60
2022-11-16T15:49:53.756Z,7.03
2022-11-16T15:52:41.321Z,6.90
2022-11-16T15:55:24.291Z,7.15
2022-11-16T15:58:01.878Z,10.00
2022-11-16T16:00:30.032Z,10.60
2022-11-16T16:03:04.682Z,10.00
2022-11-16T16:05:39.242Z,11.80
2022-11-16T16:08:23.088Z,12.65
2022-11-16T16:11:11.438Z,7.45
2022-11-16T16:13:42.372Z,15.50
2022-11-16T16:16:11.811Z,7.00
2022-11-16T16:18:45.417Z,9.77
2022-11-16T16:21:13.834Z,8.18
2022-11-16T16:23:51.873Z,13.98
2022-11-16T16:26:18.731Z,17.15
2022-11-16T16:28:45.961Z,11.38
2022-11-16T16:31:14.319Z,8.85
2022-11-16T16:33:41.205Z,7.85
2022-11-16T16:36:11.387Z,7.88
2022-11-16T16:38:39.114Z,9.15
2022-11-16T16:41:07.071Z,8.98
2022-11-16T16:43:34.288Z,8.68
2022-11-16T16:46:02.391Z,4.55
2022-11-16T16:48:29.390Z,5.00
2022-11-16T16:50:56.139Z,3.90
2022-11-16T16:53:22.769Z,3.85
2022-11-16T16:55:49.425Z,4.82
2022-11-16T16:58:16.141Z,7.85
2022-11-16T17:00:43.041Z,7.93
2022-11-16T17:03:10.071Z,6.40
2022-11-16T17:05:37.289Z,5.32
2022-11-16T17:08:04.344Z,3.97
2022-11-16T17:10:31.078Z,6.38
2022-11-16T17:12:57.872Z,6.45
2022-11-16T17:15:25.232Z,4.97
2022-11-16T17:17:51.992Z,7.18
2022-11-16T17:20:18.680Z,16.67
2022-11-16T17:22:45.948Z,3.65
2022-11-16T17:25:13.204Z,2.25
2022-11-16T17:27:39.887Z,2.67
2022-11-16T17:30:07.347Z,2.13
2022-11-16T17:32:34.057Z,3.30
2022-11-16T17:35:00.673Z,2.40
2022-11-16T17:37:27.361Z,5.72
2022-11-16T17:39:54.028Z,4.40
2022-11-16T17:42:20.715Z,22.63
2022-11-16T17:44:47.335Z,8.70
2022-11-16T17:47:14.099Z,7.75
2022-11-16T17:49:40.791Z,7.40
2022-11-16T17:52:07.633Z,8.00
2022-11-16T17:54:34.298Z,8.05
2022-11-16T17:57:01.043Z,8.38
2022-11-16T17:59:29.794Z,8.88
2022-11-16T18:01:57.937Z,8.18
2022-11-16T18:04:24.714Z,8.07
2022-11-16T18:06:51.422Z,5.70
2022-11-16T18:09:18.824Z,7.68
2022-11-16T18:11:45.571Z,5.03
2022-11-16T18:14:12.233Z,7.40
2022-11-16T18:16:42.269Z,8.68
2022-11-16T18:19:11.832Z,7.20
2022-11-16T18:21:41.584Z,8.05
2022-11-16T18:24:09.316Z,9.50
2022-11-16T18:26:36.678Z,8.25
2022-11-16T18:29:04.392Z,11.02
2022-11-16T18:31:32.973Z,10.18
2022-11-16T18:34:01.072Z,12.35
2022-11-16T18:36:27.857Z,10.35
2022-11-16T18:38:54.601Z,20.75
2022-11-16T18:41:24.883Z,12.13
2022-11-16T18:44:01.730Z,10.45
2022-11-16T18:46:32.743Z,5.70
2022-11-16T18:49:00.190Z,3.70
2022-11-16T18:51:27.808Z,3.42
2022-11-16T18:53:55.198Z,5.32
2022-11-16T18:56:22.722Z,2.88
2022-11-16T18:58:51.314Z,4.18
2022-11-16T19:01:21.135Z,3.88
2022-11-16T19:03:48.069Z,3.00
2022-11-16T19:06:17.003Z,3.53
2022-11-16T19:08:46.891Z,2.30
2022-11-16T19:11:17.086Z,5.18
2022-11-16T19:13:44.879Z,3.78
2022-11-16T19:16:13.640Z,5.63
2022-11-16T19:18:40.711Z,5.03
2022-11-16T19:21:13.458Z,7.50
2022-11-16T19:23:42.939Z,6.90
2022-11-16T19:26:12.726Z,7.03
2022-11-16T19:28:41.418Z,8.10
2022-11-16T19:31:09.752Z,9.23
2022-11-16T19:33:37.587Z,11.45
2022-11-16T19:36:10.013Z,8.93
2022-11-16T19:38:37.616Z,6.25
2022-11-16T19:41:04.981Z,7.97
2022-11-16T19:43:33.222Z,7.70
2022-11-16T19:46:12.241Z,9.65
2022-11-16T19:48:39.581Z,9.73
2022-11-16T19:51:07.255Z,14.75
2022-11-16T19:53:35.396Z,10.70
2022-11-16T19:56:03.436Z,10.68
2022-11-16T19:58:31.997Z,11.05
2022-11-16T20:01:04.193Z,8.95
2022-11-16T20:03:31.667Z,8.98
2022-11-16T20:06:14.980Z,10.68
2022-11-16T20:08:43.149Z,10.88
2022-11-16T20:11:11.705Z,13.90
2022-11-16T20:13:38.626Z,13.00
2022-11-16T20:16:07.256Z,13.07
2022-11-16T20:18:33.907Z,8.77
2022-11-16T20:21:02.315Z,9.68
2022-11-16T20:23:29.075Z,8.35
2022-11-16T20:25:55.790Z,6.70
2022-11-16T20:28:22.624Z,7.32
2022-11-16T20:30:49.310Z,7.30
2022-11-16T20:33:16.042Z,5.05
2022-11-16T20:35:42.765Z,7.68
2022-11-16T20:38:09.650Z,15.05
2022-11-16T20:40:36.318Z,16.38
2022-11-16T20:43:03.058Z,15.18
2022-11-16T20:45:33.330Z,13.98
2022-11-16T20:48:00.354Z,9.73
2022-11-16T20:50:27.301Z,7.32
2022-11-16T20:52:53.964Z,6.88
2022-11-16T20:55:20.993Z,6.15
2022-11-16T20:57:47.684Z,6.57
2022-11-16T21:00:15.103Z,6.97
2022-11-16T21:02:41.897Z,7.75
2022-11-16T21:05:09.060Z,7.50
2022-11-16T21:07:35.841Z,7.10
2022-11-16T21:10:20.887Z,6.35
2022-11-16T21:13:07.451Z,6.43
2022-11-16T21:15:34.167Z,12.82
2022-11-16T21:18:01.074Z,10.35
2022-11-16T21:20:28.650Z,8.10
2022-11-16T21:22:55.574Z,7.55
2022-11-16T21:25:22.376Z,8.30
2022-11-16T21:27:49.303Z,5.85
2022-11-16T21:30:16.480Z,5.30
2022-11-16T21:32:43.180Z,4.78
2022-11-16T21:35:09.862Z,4.47
2022-11-16T21:37:36.465Z,4.15
2022-11-16T21:40:03.217Z,3.35
2022-11-16T21:42:30.042Z,3.97
2022-11-16T21:44:56.837Z,4.32
2022-11-16T21:47:23.552Z,3.10
2022-11-16T21:50:16.926Z,3.47
2022-11-16T21:52:37.097Z,4.30
2022-11-16T21:55:03.972Z,5.07
2022-11-16T21:57:30.676Z,5.95
2022-11-16T21:59:57.441Z,4.78
2022-11-16T22:02:24.156Z,4.55
2022-11-16T22:05:09.682Z,5.45
2022-11-16T22:07:39.072Z,4.50
2022-11-16T22:10:08.656Z,7.45
2022-11-16T22:12:35.376Z,3.75
2022-11-16T22:15:03.619Z,4.30
2022-11-16T22:17:30.303Z,4.18
2022-11-16T22:19:57.057Z,4.15
2022-11-16T22:22:24.110Z,3.25
2022-11-16T22:24:50.937Z,4.70
2022-11-16T22:27:18.723Z,3.58
2022-11-16T22:29:45.358Z,3.67
2022-11-16T22:32:12.067Z,3.38
2022-11-16T22:34:38.763Z,3.47
2022-11-16T22:37:05.591Z,3.20
2022-11-16T22:39:32.222Z,5.47
2022-11-16T22:41:58.969Z,4.28
2022-11-16T22:44:25.750Z,2.80
2022-11-16T22:46:52.660Z,4.53
2022-11-16T22:49:19.539Z,4.10
2022-11-16T22:51:46.280Z,3.42
2022-11-16T22:54:13.473Z,4.18
2022-11-16T22:56:40.088Z,3.65
2022-11-16T22:59:06.846Z,2.35
2022-11-16T23:01:33.480Z,4.70
2022-11-16T23:04:00.198Z,3.60
2022-11-16T23:06:27.161Z,3.00
2022-11-16T23:08:53.971Z,2.35
2022-11-16T23:11:41.580Z,3.67
2022-11-16T23:14:30.959Z,2.80
2022-11-16T23:16:57.984Z,3.72
2022-11-16T23:19:43.812Z,3.80
2022-11-16T23:22:47.089Z,3.72
2022-11-16T23:25:32.187Z,5.65
2022-11-16T23:28:10.015Z,3.45
2022-11-16T23:30:36.867Z,5.20
2022-11-16T23:33:03.652Z,3.17
2022-11-16T23:35:30.271Z,4.05
2022-11-16T23:37:59.175Z,2.95
2022-11-16T23:40:28.366Z,2.63
2022-11-16T23:43:14.383Z,2.78
2022-11-16T23:45:41.771Z,4.80
2022-11-16T23:48:10.349Z,3.20
2022-11-16T23:50:37.383Z,4.60
2022-11-16T23:53:04.545Z,4.32
2022-11-16T23:55:35.062Z,4.93
2022-11-16T23:58:01.928Z,3.38
